Corbins Corner, Connecticut
Current Conditions -  °F | °C
As of 4:53 AM on Friday 24 Oct 2014 (Local Time) from KHFD Reporting Station
Overcast Overcast  
Wind Chill: 50°   Ceiling: 4100
Heat Index: 50°   Visibility: 10mi
Dew Point: 43°   Wind: 6mph
Humidity: 77%   Direction: NA
Pressure: 29.73"   Gusts: NA
Location:  41.7325°N, 72.7334°W
Report Text: KHFD 240853Z VRB05KT 10SM SCT024 BKN041 OVC055 10/06 A2973 RMK AO2 SLP066 60000 T01000061 53002
Loading
Personal Weather Stations






























Interactive Weather Map
Tropical Storm Tracking
New forecast layout! Learn more

10-Day Weather Forecast

Advertisements
Track Severe Weather on mobile